createdAt,value
2019-02-27T07:39:47.671Z,15.00
2019-02-27T07:44:51.893Z,16.00
2019-02-27T07:49:56.193Z,17.70
2019-02-27T07:55:00.423Z,18.50
2019-02-27T08:05:09.052Z,20.20
2019-02-27T08:10:17.993Z,21.70
2019-02-27T08:15:22.182Z,22.10
2019-02-27T08:20:26.349Z,24.10
2019-02-27T08:25:30.624Z,25.40
2019-02-27T08:30:34.816Z,22.90
2019-02-27T08:35:39.009Z,21.70
2019-02-27T08:45:46.828Z,22.20
2019-02-27T08:50:51.105Z,23.40
2019-02-27T09:00:59.748Z,24.70
2019-02-27T09:06:03.947Z,27.90
2019-02-27T09:11:08.144Z,27.10
2019-02-27T09:16:12.338Z,25.30
2019-02-27T09:21:17.232Z,26.60
2019-02-27T09:26:21.556Z,27.50
2019-02-27T09:31:25.761Z,30.00
2019-02-27T09:36:29.990Z,27.30
2019-02-27T09:41:34.189Z,26.70
2019-02-27T09:51:42.154Z,27.40
2019-02-27T09:56:46.355Z,28.10
2019-02-27T10:01:50.550Z,28.30
2019-02-27T10:06:54.762Z,27.60
2019-02-27T10:11:58.956Z,27.90
2019-02-27T10:17:03.159Z,28.90
2019-02-27T10:27:10.943Z,27.70
2019-02-27T10:32:15.145Z,26.30
2019-02-27T10:37:19.448Z,26.60
2019-02-27T10:47:27.539Z,26.50
2019-02-27T10:52:31.733Z,24.70
2019-02-27T10:57:38.341Z,24.50
2019-02-27T11:02:41.874Z,25.40
2019-02-27T11:07:46.603Z,23.50
2019-02-27T11:12:51.049Z,24.00
2019-02-27T11:22:59.833Z,24.20
2019-02-27T11:28:04.127Z,24.20
2019-02-27T11:33:08.518Z,25.20
2019-02-27T11:38:12.850Z,24.80
2019-02-27T11:43:17.270Z,25.80
2019-02-27T11:53:27.339Z,27.00
2019-02-27T11:58:31.908Z,27.80
2019-02-27T12:03:36.107Z,28.30
2019-02-27T12:08:40.307Z,27.80
2019-02-27T12:13:44.515Z,28.00
2019-02-27T12:18:48.709Z,27.90
2019-02-27T12:23:52.924Z,27.10
2019-02-27T12:28:57.134Z,26.20
2019-02-27T12:34:03.343Z,26.40
2019-02-27T12:39:08.607Z,27.40
2019-02-27T12:49:16.886Z,27.60
2019-02-27T12:54:22.416Z,27.30
2019-02-27T12:59:26.724Z,25.70
2019-02-27T13:04:30.916Z,24.80
2019-02-27T13:09:35.118Z,24.30
2019-02-27T13:14:39.281Z,23.90
2019-02-27T13:19:43.483Z,23.80
2019-02-27T13:24:50.262Z,24.10
2019-02-27T13:29:56.744Z,23.80
2019-02-27T13:40:03.242Z,24.30
2019-02-27T13:45:12.667Z,24.80
2019-02-27T13:50:16.821Z,25.40
2019-02-27T13:55:21.824Z,26.70
2019-02-27T14:00:28.340Z,27.20
2019-02-27T14:05:35.416Z,27.30
2019-02-27T14:10:38.494Z,27.70
2019-02-27T14:15:42.811Z,28.10
2019-02-27T14:20:47.065Z,29.80
2019-02-27T14:25:51.261Z,30.80
2019-02-27T14:30:55.467Z,31.50
2019-02-27T14:35:59.761Z,30.40
2019-02-27T14:41:04.017Z,28.90
2019-02-27T14:46:11.442Z,27.70
2019-02-27T14:51:14.276Z,28.10
2019-02-27T14:56:18.479Z,28.70
2019-02-27T15:01:22.709Z,27.20
2019-02-27T15:06:27.026Z,26.50
2019-02-27T15:11:31.225Z,24.70
2019-02-27T15:18:55.825Z,24.40
2019-02-27T15:24:01.351Z,24.50
2019-02-27T15:34:12.144Z,22.10
2019-02-27T15:39:20.306Z,21.20
2019-02-27T15:44:22.648Z,20.90
2019-02-27T15:49:26.922Z,20.70
2019-02-27T15:54:31.118Z,20.60
2019-02-27T15:59:40.873Z,20.60
2019-02-27T16:04:41.359Z,21.00
2019-02-27T16:09:46.175Z,21.10
2019-02-27T16:14:50.595Z,21.20
2019-02-27T16:19:54.872Z,20.80
2019-02-27T16:35:07.847Z,18.80
2019-02-27T16:40:17.658Z,18.50
2019-02-27T16:45:22.681Z,18.10
2019-02-27T16:50:28.126Z,17.70
2019-02-27T16:55:35.706Z,17.60
2019-02-27T17:00:38.900Z,17.20
2019-02-27T17:05:43.906Z,16.90
2019-02-27T17:10:51.697Z,16.60
2019-02-27T17:15:54.241Z,16.50
2019-02-27T17:20:58.573Z,16.10
2019-02-27T17:26:04.386Z,16.00
2019-02-27T17:31:11.746Z,15.80
2019-02-27T17:36:14.747Z,15.50
2019-02-27T17:41:18.942Z,15.20
2019-02-27T17:51:27.176Z,14.90
2019-02-27T17:56:31.679Z,14.60
2019-02-27T18:01:36.131Z,14.60
2019-02-27T18:06:40.328Z,14.60
2019-02-27T18:11:44.717Z,14.20
2019-02-27T18:16:50.144Z,14.10
2019-02-27T18:21:55.395Z,14.10
2019-02-27T18:26:59.892Z,13.90
2019-02-27T18:32:06.494Z,13.90
2019-02-27T18:37:19.086Z,14.10
2019-02-27T18:42:25.082Z,14.10
2019-02-27T18:47:29.364Z,14.10
2019-02-27T18:52:33.789Z,14.00
2019-02-27T18:57:39.079Z,13.90
2019-02-27T19:02:43.666Z,13.80
2019-02-27T19:07:48.027Z,13.70
2019-02-27T19:12:52.900Z,13.70
2019-02-27T19:17:57.341Z,13.50
2019-02-27T19:23:01.632Z,13.50
2019-02-27T19:28:06.614Z,13.40
2019-02-27T19:33:10.818Z,13.40
2019-02-27T19:38:15.423Z,13.50
2019-02-27T19:43:21.149Z,13.40
2019-02-27T19:48:26.283Z,13.30
2019-02-27T19:53:31.746Z,13.10
2019-02-27T19:58:35.998Z,13.00
2019-02-27T20:03:40.229Z,12.80
2019-02-27T20:08:45.585Z,12.90
2019-02-27T20:13:50.247Z,12.80
2019-02-27T20:18:55.178Z,12.70
2019-02-27T20:24:01.531Z,12.40
2019-02-27T20:29:05.903Z,12.30
2019-02-27T20:34:11.807Z,12.10
2019-02-27T20:39:16.255Z,11.90
2019-02-27T20:44:20.478Z,11.90
2019-02-27T20:49:24.774Z,11.80
2019-02-27T20:54:29.051Z,12.00
2019-02-27T20:59:33.359Z,11.90
2019-02-27T21:04:39.108Z,12.00
2019-02-27T21:09:45.195Z,11.90
2019-02-27T21:14:49.454Z,11.70
2019-02-27T21:19:53.676Z,11.60
2019-02-27T21:24:57.957Z,11.40
2019-02-27T21:30:02.180Z,11.40
2019-02-27T21:35:06.600Z,11.30
2019-02-27T21:40:11.759Z,11.30
2019-02-27T21:45:18.044Z,11.20
2019-02-27T21:50:22.306Z,11.20
2019-02-27T21:55:26.522Z,11.10
2019-02-27T22:00:31.220Z,11.20
2019-02-27T22:05:42.528Z,11.30
2019-02-27T22:10:41.437Z,11.30
2019-02-27T22:15:45.626Z,11.10
2019-02-27T22:20:49.923Z,10.90
2019-02-27T22:25:54.116Z,10.80
2019-02-27T22:30:58.395Z,10.80
2019-02-27T22:36:03.045Z,10.70
2019-02-27T22:41:09.533Z,10.50
2019-02-27T22:46:13.682Z,10.50
2019-02-27T22:51:19.134Z,10.40
2019-02-27T22:56:23.318Z,10.40
2019-02-27T23:01:34.003Z,10.50
2019-02-27T23:06:38.304Z,10.60
2019-02-27T23:11:43.195Z,10.50
2019-02-27T23:16:47.389Z,10.60
2019-02-27T23:21:51.741Z,10.60
2019-02-27T23:26:55.932Z,10.70
2019-02-27T23:32:00.103Z,10.80
2019-02-27T23:37:04.477Z,10.80
2019-02-27T23:42:08.932Z,10.80
2019-02-27T23:47:13.160Z,10.60
2019-02-27T23:52:19.344Z,10.70
2019-02-27T23:57:24.458Z,10.40
